createdAt,value
2019-03-17T00:00:13.444Z,18.77
2019-03-17T00:02:41.911Z,21.77
2019-03-17T00:05:11.821Z,22.37
2019-03-17T00:07:40.949Z,22.90
2019-03-17T00:10:09.533Z,22.40
2019-03-17T00:12:38.116Z,22.27
2019-03-17T00:15:07.225Z,23.50
2019-03-17T00:17:35.715Z,22.80
2019-03-17T00:20:08.386Z,24.50
2019-03-17T00:22:36.857Z,26.33
2019-03-17T00:25:09.475Z,26.37
2019-03-17T00:27:36.617Z,27.47
2019-03-17T00:30:10.653Z,24.70
2019-03-17T00:32:39.123Z,24.33
2019-03-17T00:35:07.805Z,24.50
2019-03-17T00:37:36.315Z,23.50
2019-03-17T00:40:07.250Z,22.03
2019-03-17T00:42:36.225Z,31.50
2019-03-17T00:45:06.832Z,29.10
2019-03-17T00:47:35.288Z,22.70
2019-03-17T00:50:09.442Z,23.83
2019-03-17T00:52:38.427Z,27.13
2019-03-17T00:55:07.327Z,25.83
2019-03-17T00:57:35.872Z,20.60
2019-03-17T01:00:10.998Z,17.75
2019-03-17T01:02:39.531Z,20.80
2019-03-17T01:05:08.230Z,20.07
2019-03-17T01:07:36.693Z,20.30
2019-03-17T01:10:07.577Z,21.27
2019-03-17T01:12:36.159Z,24.17
2019-03-17T01:15:06.476Z,23.67
2019-03-17T01:17:34.938Z,16.80
2019-03-17T01:20:04.046Z,16.83
2019-03-17T01:22:32.527Z,19.23
2019-03-17T01:25:01.278Z,16.83
2019-03-17T01:27:29.938Z,17.87
2019-03-17T01:29:58.411Z,19.23
2019-03-17T01:32:26.895Z,17.48
2019-03-17T01:35:08.148Z,18.73
2019-03-17T01:37:25.700Z,18.90
2019-03-17T01:39:54.189Z,19.60
2019-03-17T01:42:22.804Z,19.73
2019-03-17T01:44:51.262Z,21.70
2019-03-17T01:47:19.744Z,27.93
2019-03-17T01:49:48.364Z,26.00
2019-03-17T01:52:16.829Z,27.77
2019-03-17T01:54:45.602Z,29.33
2019-03-17T01:57:14.148Z,26.50
2019-03-17T01:59:42.660Z,25.83
2019-03-17T02:02:11.239Z,22.97
2019-03-17T02:04:45.824Z,23.10
2019-03-17T02:07:16.325Z,22.97
2019-03-17T02:09:44.861Z,24.13
2019-03-17T02:12:13.409Z,25.40
2019-03-17T02:14:41.851Z,24.53
2019-03-17T02:17:10.414Z,25.17
2019-03-17T02:19:38.912Z,25.93
2019-03-17T02:22:07.444Z,25.43
2019-03-17T02:24:35.899Z,26.90
2019-03-17T02:27:04.651Z,28.13
2019-03-17T02:29:33.116Z,27.87
2019-03-17T02:32:01.578Z,28.27
2019-03-17T02:34:30.258Z,28.13
2019-03-17T02:36:58.707Z,27.77
2019-03-17T02:39:27.265Z,26.73
2019-03-17T02:41:55.845Z,25.13
2019-03-17T02:44:24.406Z,27.07
2019-03-17T02:46:52.863Z,26.03
2019-03-17T02:49:21.429Z,24.67
2019-03-17T02:51:49.898Z,24.27
2019-03-17T02:54:18.362Z,32.00
2019-03-17T02:56:46.998Z,45.67
2019-03-17T02:59:15.578Z,51.33
2019-03-17T03:01:44.042Z,45.87
2019-03-17T03:04:12.750Z,41.43
2019-03-17T03:06:42.217Z,31.17
2019-03-17T03:09:11.689Z,26.50
2019-03-17T03:11:41.252Z,26.73
2019-03-17T03:14:09.849Z,26.10
2019-03-17T03:16:38.331Z,25.83
2019-03-17T03:19:07.051Z,25.53
2019-03-17T03:21:35.608Z,24.83
2019-03-17T03:24:04.061Z,26.30
2019-03-17T03:26:32.577Z,33.67
2019-03-17T03:29:01.138Z,37.00
2019-03-17T03:31:29.590Z,31.95
2019-03-17T03:33:58.159Z,30.50
2019-03-17T03:36:26.612Z,28.40
2019-03-17T03:38:55.093Z,26.63
2019-03-17T03:41:23.841Z,25.47
2019-03-17T03:43:52.364Z,25.63
2019-03-17T03:46:20.807Z,29.53
2019-03-17T03:48:49.548Z,25.30
2019-03-17T03:51:18.093Z,24.70
2019-03-17T03:53:46.553Z,22.33
2019-03-17T03:56:16.219Z,22.27
2019-03-17T03:58:46.427Z,22.50
2019-03-17T04:01:14.965Z,20.20
2019-03-17T04:03:43.503Z,19.77
2019-03-17T04:06:25.608Z,19.97
2019-03-17T04:08:42.226Z,19.73
2019-03-17T04:11:10.866Z,19.73
2019-03-17T04:13:39.303Z,21.77
2019-03-17T04:16:07.765Z,21.60
2019-03-17T04:18:36.300Z,21.93
2019-03-17T04:21:04.827Z,22.83
2019-03-17T04:23:33.298Z,23.00
2019-03-17T04:26:01.855Z,22.77
2019-03-17T04:28:30.321Z,24.73
2019-03-17T04:30:58.892Z,28.87
2019-03-17T04:33:27.660Z,31.93
2019-03-17T04:35:56.128Z,35.97
2019-03-17T04:38:25.594Z,38.63
2019-03-17T04:40:55.587Z,35.20
2019-03-17T04:43:24.068Z,28.03
2019-03-17T04:45:52.567Z,26.50
2019-03-17T04:48:21.234Z,26.03
2019-03-17T04:50:49.773Z,25.83
2019-03-17T04:53:18.332Z,28.07
2019-03-17T04:55:47.002Z,30.70
2019-03-17T04:58:15.559Z,31.87
2019-03-17T05:00:44.864Z,31.93
2019-03-17T05:03:13.478Z,32.83
2019-03-17T05:05:41.999Z,30.40
2019-03-17T05:08:10.480Z,29.80
2019-03-17T05:10:39.020Z,27.60
2019-03-17T05:13:07.498Z,26.47
2019-03-17T05:15:36.038Z,26.33
2019-03-17T05:18:05.493Z,25.10
2019-03-17T05:20:33.954Z,24.40
2019-03-17T05:23:02.424Z,23.50
2019-03-17T05:25:31.077Z,23.80
2019-03-17T05:27:59.539Z,22.73
2019-03-17T05:30:28.031Z,21.90
2019-03-17T05:32:56.641Z,21.47
2019-03-17T05:35:25.112Z,23.10
2019-03-17T05:37:53.588Z,21.67
2019-03-17T05:40:22.135Z,20.90
2019-03-17T05:42:50.597Z,21.17
2019-03-17T05:45:19.070Z,22.30
2019-03-17T05:47:47.677Z,23.13
2019-03-17T05:50:16.279Z,23.00
2019-03-17T05:52:44.751Z,21.73
2019-03-17T05:55:13.283Z,20.80
2019-03-17T05:57:41.746Z,22.40
2019-03-17T06:00:13.320Z,19.37
2019-03-17T06:02:42.057Z,16.23
2019-03-17T06:05:10.781Z,15.33
2019-03-17T06:07:39.302Z,15.03
2019-03-17T06:10:08.839Z,14.87
2019-03-17T06:12:37.405Z,14.10
2019-03-17T06:15:11.233Z,13.83
2019-03-17T06:17:39.830Z,14.17
2019-03-17T06:20:11.058Z,12.90
2019-03-17T06:22:39.585Z,12.07
2019-03-17T06:25:10.304Z,10.70
2019-03-17T06:27:38.783Z,10.43
2019-03-17T06:30:10.698Z,11.03
2019-03-17T06:32:39.333Z,9.83
2019-03-17T06:35:07.954Z,9.57
2019-03-17T06:37:37.371Z,8.67
2019-03-17T06:40:11.766Z,8.97
2019-03-17T06:42:40.219Z,10.43
2019-03-17T06:45:10.743Z,9.67
2019-03-17T06:47:40.889Z,9.77
2019-03-17T06:50:14.287Z,9.90
2019-03-17T06:52:42.974Z,9.93
2019-03-17T06:55:18.473Z,9.17
2019-03-17T06:57:47.244Z,8.63
2019-03-17T07:00:16.128Z,9.80
2019-03-17T07:02:44.575Z,9.40
2019-03-17T07:05:13.451Z,10.10
2019-03-17T07:07:44.384Z,10.17
2019-03-17T07:10:13.145Z,9.37
2019-03-17T07:12:41.824Z,9.10
2019-03-17T07:15:11.617Z,8.53
2019-03-17T07:17:40.159Z,7.97
2019-03-17T07:20:13.654Z,9.17
2019-03-17T07:22:42.188Z,7.80
2019-03-17T07:25:10.795Z,7.87
2019-03-17T07:27:39.380Z,6.73
2019-03-17T07:30:14.777Z,6.60
2019-03-17T07:32:43.408Z,7.17
2019-03-17T07:35:12.068Z,6.57
2019-03-17T07:37:40.534Z,5.30
2019-03-17T07:40:12.011Z,5.33
2019-03-17T07:42:40.614Z,6.43
2019-03-17T07:45:10.863Z,4.47
2019-03-17T07:47:39.335Z,4.70
2019-03-17T07:50:13.253Z,5.70
2019-03-17T07:52:42.694Z,5.00
2019-03-17T07:55:11.475Z,4.37
2019-03-17T07:57:40.060Z,4.10
2019-03-17T08:00:11.401Z,5.00
2019-03-17T08:02:39.942Z,3.97
2019-03-17T08:05:09.997Z,5.00
2019-03-17T08:07:38.647Z,4.50
2019-03-17T08:10:13.305Z,4.20
2019-03-17T08:12:41.912Z,4.07
2019-03-17T08:15:12.138Z,4.23
2019-03-17T08:17:40.691Z,3.80
2019-03-17T08:20:10.669Z,4.23
2019-03-17T08:22:39.199Z,4.27
2019-03-17T08:25:10.035Z,4.03
2019-03-17T08:27:38.636Z,4.80
2019-03-17T08:30:14.965Z,5.70
2019-03-17T08:32:43.482Z,4.10
2019-03-17T08:35:12.478Z,3.30
2019-03-17T08:37:40.933Z,2.70
2019-03-17T08:40:12.237Z,2.50
2019-03-17T08:42:40.822Z,2.70
2019-03-17T08:45:11.465Z,2.17
2019-03-17T08:47:39.993Z,2.60
2019-03-17T08:50:13.037Z,3.30
2019-03-17T08:52:41.525Z,2.73
2019-03-17T08:55:11.147Z,3.00
2019-03-17T08:57:39.837Z,2.43
2019-03-17T09:00:11.415Z,2.20
2019-03-17T09:02:39.888Z,2.10
2019-03-17T09:05:08.842Z,2.03
2019-03-17T09:07:37.281Z,2.60
2019-03-17T09:10:14.595Z,2.57
2019-03-17T09:12:43.054Z,2.37
2019-03-17T09:15:11.792Z,1.57
2019-03-17T09:17:40.396Z,2.00
2019-03-17T09:20:13.884Z,1.80
2019-03-17T09:22:42.435Z,1.90
2019-03-17T09:25:11.659Z,1.80
2019-03-17T09:27:40.375Z,2.40
2019-03-17T09:30:18.793Z,1.90
2019-03-17T09:32:47.917Z,2.20
2019-03-17T09:35:16.383Z,2.83
2019-03-17T09:37:45.134Z,1.83
2019-03-17T09:40:17.387Z,2.30
2019-03-17T09:42:45.954Z,2.60
2019-03-17T09:45:15.455Z,2.37
2019-03-17T09:47:44.000Z,1.90
2019-03-17T09:50:17.697Z,2.70
2019-03-17T09:52:47.305Z,1.97
2019-03-17T09:55:15.770Z,2.37
2019-03-17T09:57:44.427Z,1.83
2019-03-17T10:00:19.110Z,2.00
2019-03-17T10:02:47.641Z,2.10
2019-03-17T10:05:16.230Z,1.80
2019-03-17T10:07:44.852Z,1.60
2019-03-17T10:10:24.306Z,1.93
2019-03-17T10:12:53.752Z,2.33
2019-03-17T10:15:22.274Z,1.80
2019-03-17T10:17:50.823Z,1.90
2019-03-17T10:20:20.338Z,1.93
2019-03-17T10:22:49.029Z,2.17
2019-03-17T10:25:17.632Z,1.90
2019-03-17T10:27:46.300Z,1.97
2019-03-17T10:30:17.828Z,1.80
2019-03-17T10:32:47.187Z,1.77
2019-03-17T10:35:15.805Z,1.60
2019-03-17T10:37:44.522Z,1.97
2019-03-17T10:40:16.865Z,1.80
2019-03-17T10:42:45.515Z,1.53
2019-03-17T10:45:14.513Z,1.63
2019-03-17T10:47:43.049Z,1.70
2019-03-17T10:50:14.028Z,1.53
2019-03-17T10:52:42.564Z,1.60
2019-03-17T10:55:11.980Z,1.80
2019-03-17T10:57:40.613Z,1.20
2019-03-17T11:00:16.854Z,1.50
2019-03-17T11:02:45.492Z,1.40
2019-03-17T11:05:14.191Z,1.60
2019-03-17T11:07:42.725Z,1.70
2019-03-17T11:10:12.420Z,1.47
2019-03-17T11:12:40.875Z,1.67
2019-03-17T11:15:13.504Z,2.70
2019-03-17T11:17:42.039Z,1.30
2019-03-17T11:20:12.211Z,1.67
2019-03-17T11:22:41.067Z,1.70
2019-03-17T11:25:16.730Z,1.60
2019-03-17T11:27:45.193Z,1.70
2019-03-17T11:30:15.291Z,1.60
2019-03-17T11:32:43.820Z,1.47
2019-03-17T11:35:12.570Z,1.60
2019-03-17T11:37:41.158Z,1.80
2019-03-17T11:40:22.087Z,1.70
2019-03-17T11:42:51.057Z,1.87
2019-03-17T11:45:19.510Z,1.70
2019-03-17T11:47:48.733Z,1.70
2019-03-17T11:50:21.680Z,2.03
2019-03-17T11:52:50.888Z,2.03
2019-03-17T11:55:19.588Z,1.90
2019-03-17T11:57:48.490Z,1.70
2019-03-17T12:00:22.138Z,1.90
2019-03-17T12:02:50.602Z,2.33
2019-03-17T12:05:19.231Z,1.70
2019-03-17T12:07:47.697Z,1.97
2019-03-17T12:10:24.113Z,1.90
2019-03-17T12:12:52.657Z,1.77
2019-03-17T12:15:23.787Z,2.20
2019-03-17T12:17:52.490Z,2.40
2019-03-17T12:20:21.223Z,1.83
2019-03-17T12:22:49.749Z,2.00
2019-03-17T12:25:19.052Z,2.17
2019-03-17T12:27:48.010Z,1.80
2019-03-17T12:30:23.923Z,5.50
2019-03-17T12:32:53.138Z,2.30
2019-03-17T12:35:22.229Z,1.97
2019-03-17T12:37:50.758Z,2.00
2019-03-17T12:40:19.299Z,2.27
2019-03-17T12:42:47.955Z,1.90
2019-03-17T12:45:16.485Z,2.10
2019-03-17T12:47:44.955Z,2.17
2019-03-17T12:50:21.485Z,2.43
2019-03-17T12:52:50.025Z,1.77
2019-03-17T12:55:18.551Z,2.12
2019-03-17T12:57:47.342Z,1.75
2019-03-17T13:00:20.363Z,2.03
2019-03-17T13:02:48.822Z,2.35
2019-03-17T13:05:17.509Z,2.22
2019-03-17T13:07:46.040Z,2.25
2019-03-17T13:10:21.938Z,2.80
2019-03-17T13:12:50.512Z,2.00
2019-03-17T13:15:19.051Z,2.35
2019-03-17T13:17:47.587Z,2.50
2019-03-17T13:20:21.125Z,2.43
2019-03-17T13:22:49.886Z,2.15
2019-03-17T13:25:18.342Z,2.25
2019-03-17T13:27:47.005Z,2.60
2019-03-17T13:30:16.570Z,2.30
2019-03-17T13:32:45.099Z,2.30
2019-03-17T13:35:13.941Z,2.65
2019-03-17T13:37:42.696Z,2.30
2019-03-17T13:40:28.931Z,2.40
2019-03-17T13:42:49.419Z,2.45
2019-03-17T13:45:17.911Z,2.30
2019-03-17T13:47:46.525Z,2.40
2019-03-17T13:50:23.482Z,2.25
2019-03-17T13:52:52.131Z,2.12
2019-03-17T13:55:21.594Z,2.27
2019-03-17T13:58:01.364Z,2.40
2019-03-17T14:00:29.923Z,2.25
2019-03-17T14:02:58.433Z,2.58
2019-03-17T14:05:27.126Z,2.08
2019-03-17T14:07:55.579Z,2.25
2019-03-17T14:10:24.112Z,10.03
2019-03-17T14:12:52.673Z,2.30
2019-03-17T14:15:22.157Z,2.58
2019-03-17T14:17:50.676Z,2.20
2019-03-17T14:20:21.090Z,2.13
2019-03-17T14:22:49.978Z,2.33
2019-03-17T14:25:29.435Z,2.62
2019-03-17T14:28:00.695Z,2.20
2019-03-17T14:30:29.336Z,2.20
2019-03-17T14:32:57.958Z,2.22
2019-03-17T14:35:27.605Z,2.30
2019-03-17T14:37:56.219Z,2.02
2019-03-17T14:40:24.763Z,2.47
2019-03-17T14:42:55.364Z,2.58
2019-03-17T14:45:23.644Z,3.10
2019-03-17T14:47:52.423Z,2.50
2019-03-17T14:50:22.014Z,2.47
2019-03-17T14:52:50.524Z,2.70
2019-03-17T14:55:19.236Z,2.80
2019-03-17T14:57:47.771Z,3.70
2019-03-17T15:00:18.717Z,2.60
2019-03-17T15:02:47.406Z,2.70
2019-03-17T15:05:16.136Z,2.30
2019-03-17T15:07:44.677Z,2.30
2019-03-17T15:10:19.952Z,2.50
2019-03-17T15:12:48.564Z,2.55
2019-03-17T15:15:21.338Z,2.50
2019-03-17T15:17:50.142Z,2.35
2019-03-17T15:20:27.664Z,2.50
2019-03-17T15:22:56.762Z,2.12
2019-03-17T15:25:25.308Z,2.37
2019-03-17T15:27:53.764Z,3.08
2019-03-17T15:30:29.435Z,2.63
2019-03-17T15:32:58.074Z,2.85
2019-03-17T15:35:26.611Z,6.45
2019-03-17T15:37:55.226Z,10.13
2019-03-17T15:40:23.684Z,3.80
2019-03-17T15:42:52.175Z,2.80
2019-03-17T15:45:25.592Z,2.83
2019-03-17T15:47:54.286Z,2.65
2019-03-17T15:50:25.100Z,2.60
2019-03-17T15:52:54.658Z,11.55
2019-03-17T15:55:23.291Z,7.83
2019-03-17T15:57:51.752Z,9.83
2019-03-17T16:00:25.548Z,18.67
2019-03-17T16:02:51.759Z,5.93
2019-03-17T16:05:20.313Z,6.13
2019-03-17T16:07:49.159Z,5.60
2019-03-17T16:10:29.083Z,32.33
2019-03-17T16:12:57.745Z,8.80
2019-03-17T16:15:26.307Z,11.87
2019-03-17T16:17:54.776Z,45.50
2019-03-17T16:20:24.319Z,41.43
2019-03-17T16:22:52.880Z,45.33
2019-03-17T16:25:38.519Z,35.00
2019-03-17T16:28:06.992Z,31.07
2019-03-17T16:30:35.566Z,10.27
2019-03-17T16:33:04.686Z,18.27
2019-03-17T16:35:33.222Z,36.07
2019-03-17T16:38:01.854Z,10.53
2019-03-17T16:40:34.745Z,5.57
2019-03-17T16:43:03.524Z,7.13
2019-03-17T16:45:32.148Z,19.33
2019-03-17T16:48:00.627Z,14.00
2019-03-17T16:50:29.093Z,11.90
2019-03-17T16:52:57.650Z,7.13
2019-03-17T16:55:26.247Z,41.80
2019-03-17T16:57:54.783Z,18.63
2019-03-17T17:00:24.609Z,8.23
2019-03-17T17:02:53.253Z,10.13
2019-03-17T17:05:26.329Z,5.77
2019-03-17T17:07:54.994Z,6.23
2019-03-17T17:10:27.803Z,6.13
2019-03-17T17:12:56.392Z,4.30
2019-03-17T17:15:27.157Z,4.27
2019-03-17T17:17:55.696Z,4.83
2019-03-17T17:20:33.041Z,4.43
2019-03-17T17:23:01.504Z,11.30
2019-03-17T17:25:30.093Z,24.30
2019-03-17T17:27:58.731Z,5.43
2019-03-17T17:30:27.309Z,4.50
2019-03-17T17:32:57.244Z,4.10
2019-03-17T17:35:25.801Z,6.17
2019-03-17T17:37:55.242Z,4.93
2019-03-17T17:40:27.478Z,5.40
2019-03-17T17:42:56.081Z,7.00
2019-03-17T17:45:25.540Z,6.20
2019-03-17T17:47:54.254Z,10.83
2019-03-17T17:50:24.301Z,3.30
2019-03-17T17:52:52.862Z,3.87
2019-03-17T17:55:21.888Z,5.23
2019-03-17T17:57:52.583Z,5.53
2019-03-17T18:00:27.848Z,6.43
2019-03-17T18:02:58.652Z,5.53
2019-03-17T18:05:26.725Z,3.40
2019-03-17T18:07:55.342Z,4.37
2019-03-17T18:10:23.849Z,9.17
2019-03-17T18:12:52.313Z,20.27
2019-03-17T18:15:26.246Z,9.67
2019-03-17T18:17:54.802Z,5.10
2019-03-17T18:20:23.409Z,4.60
2019-03-17T18:22:52.970Z,4.20
2019-03-17T18:25:22.193Z,3.90
2019-03-17T18:27:50.773Z,4.60
2019-03-17T18:30:20.760Z,4.17
2019-03-17T18:32:49.285Z,3.40
2019-03-17T18:35:17.837Z,5.17
2019-03-17T18:37:46.457Z,6.50
2019-03-17T18:40:16.966Z,5.90
2019-03-17T18:42:45.596Z,3.90
2019-03-17T18:45:25.458Z,3.97
2019-03-17T18:47:53.984Z,3.30
2019-03-17T18:50:22.628Z,3.23
2019-03-17T18:52:51.406Z,2.87
2019-03-17T18:55:20.005Z,2.73
2019-03-17T18:57:48.533Z,3.20
2019-03-17T19:00:22.391Z,2.80
2019-03-17T19:02:50.705Z,2.23
2019-03-17T19:05:20.414Z,2.90
2019-03-17T19:07:51.135Z,3.23
2019-03-17T19:10:20.820Z,3.33
2019-03-17T19:12:49.416Z,1.77
2019-03-17T19:15:22.731Z,1.67
2019-03-17T19:17:52.536Z,1.63
2019-03-17T19:20:21.852Z,1.90
2019-03-17T19:22:51.288Z,1.80
2019-03-17T19:25:22.021Z,1.10
2019-03-17T19:27:50.665Z,0.80
2019-03-17T19:30:25.098Z,1.25
2019-03-17T19:32:53.610Z,1.40
2019-03-17T19:35:22.072Z,0.93
2019-03-17T19:37:51.590Z,0.80
2019-03-17T19:40:21.289Z,0.90
2019-03-17T19:42:58.591Z,1.10
2019-03-17T19:45:20.257Z,1.13
2019-03-17T19:47:48.693Z,1.13
2019-03-17T19:50:18.705Z,1.80
2019-03-17T19:52:48.951Z,1.53
2019-03-17T19:55:17.441Z,1.57
2019-03-17T19:57:45.974Z,1.70
2019-03-17T20:00:19.581Z,1.30
2019-03-17T20:02:48.171Z,0.90
2019-03-17T20:05:16.721Z,1.70
2019-03-17T20:07:45.390Z,1.10
2019-03-17T20:10:25.671Z,0.87
2019-03-17T20:12:54.355Z,1.57
2019-03-17T20:15:22.800Z,1.20
2019-03-17T20:17:51.252Z,1.50
2019-03-17T20:20:19.901Z,1.40
2019-03-17T20:22:48.353Z,1.30
2019-03-17T20:25:16.852Z,1.43
2019-03-17T20:27:45.983Z,1.50
2019-03-17T20:30:15.774Z,1.47
2019-03-17T20:32:44.304Z,1.90
2019-03-17T20:35:13.598Z,1.30
2019-03-17T20:37:42.302Z,1.50
2019-03-17T20:40:13.260Z,2.57
2019-03-17T20:42:41.839Z,2.50
2019-03-17T20:45:14.703Z,2.07
2019-03-17T20:47:43.281Z,2.27
2019-03-17T20:50:14.305Z,2.67
2019-03-17T20:52:42.848Z,3.10
2019-03-17T20:55:11.975Z,1.30
2019-03-17T20:57:40.703Z,1.27
2019-03-17T21:00:14.960Z,1.10
2019-03-17T21:02:43.411Z,0.87
2019-03-17T21:05:12.814Z,1.20
2019-03-17T21:07:41.629Z,1.20
2019-03-17T21:10:12.770Z,1.50
2019-03-17T21:12:41.325Z,1.33
2019-03-17T21:15:12.716Z,1.87
2019-03-17T21:17:41.373Z,1.40
2019-03-17T21:20:18.012Z,0.90
2019-03-17T21:22:46.474Z,0.90
2019-03-17T21:25:15.113Z,1.00
2019-03-17T21:27:45.187Z,0.90
2019-03-17T21:30:24.983Z,0.70
2019-03-17T21:32:53.448Z,0.80
2019-03-17T21:35:21.968Z,0.90
2019-03-17T21:37:50.949Z,0.70
2019-03-17T21:40:19.423Z,1.03
2019-03-17T21:42:47.944Z,1.10
2019-03-17T21:45:16.520Z,0.90
2019-03-17T21:47:45.054Z,1.07
2019-03-17T21:50:20.696Z,1.20
2019-03-17T21:52:49.307Z,1.23
2019-03-17T21:55:18.014Z,1.17
2019-03-17T21:57:46.533Z,0.77
2019-03-17T22:00:16.530Z,0.90
2019-03-17T22:02:45.006Z,1.07
2019-03-17T22:05:14.300Z,1.00
2019-03-17T22:07:49.489Z,0.80
2019-03-17T22:10:21.932Z,0.83
2019-03-17T22:12:50.574Z,1.13
2019-03-17T22:15:19.803Z,1.40
2019-03-17T22:17:48.261Z,1.93
2019-03-17T22:20:17.626Z,1.57
2019-03-17T22:22:46.241Z,1.60
2019-03-17T22:25:15.373Z,1.63
2019-03-17T22:27:43.995Z,1.60
2019-03-17T22:30:22.101Z,1.93
2019-03-17T22:32:57.542Z,1.10
2019-03-17T22:35:25.996Z,1.20
2019-03-17T22:37:54.446Z,1.67
2019-03-17T22:40:23.055Z,1.57
2019-03-17T22:42:51.532Z,1.30
2019-03-17T22:45:19.998Z,1.50
2019-03-17T22:47:53.974Z,1.53
2019-03-17T22:50:22.398Z,1.97
2019-03-17T22:52:50.913Z,1.67
2019-03-17T22:55:19.558Z,1.73
2019-03-17T22:57:48.011Z,2.20
2019-03-17T23:00:20.015Z,2.00
2019-03-17T23:02:48.580Z,2.27
2019-03-17T23:05:17.104Z,1.60
2019-03-17T23:07:45.673Z,1.80
2019-03-17T23:10:14.264Z,1.80
2019-03-17T23:12:42.944Z,1.27
2019-03-17T23:15:12.927Z,1.50
2019-03-17T23:17:41.411Z,1.80
2019-03-17T23:20:12.350Z,2.40
2019-03-17T23:22:40.875Z,2.20
2019-03-17T23:25:10.564Z,2.20
2019-03-17T23:27:39.041Z,4.03
2019-03-17T23:30:13.398Z,3.30
2019-03-17T23:32:42.067Z,2.20
2019-03-17T23:35:10.667Z,2.00
2019-03-17T23:37:39.804Z,2.00
2019-03-17T23:40:10.329Z,2.87
2019-03-17T23:42:38.786Z,2.30
2019-03-17T23:45:09.626Z,2.37
2019-03-17T23:47:38.417Z,2.80
2019-03-17T23:50:09.331Z,2.80
2019-03-17T23:52:37.931Z,2.90
2019-03-17T23:55:08.126Z,2.90
2019-03-17T23:57:36.589Z,2.83
